createdAt,value
2019-05-02T00:00:25.917Z,40.63
2019-05-02T00:03:21.908Z,39.70
2019-05-02T00:06:19.435Z,40.97
2019-05-02T00:09:16.235Z,42.07
2019-05-02T00:12:12.743Z,43.40
2019-05-02T00:15:08.573Z,44.77
2019-05-02T00:18:06.149Z,47.50
2019-05-02T00:21:01.528Z,49.10
2019-05-02T00:23:59.168Z,51.13
2019-05-02T00:26:56.031Z,45.17
2019-05-02T00:29:53.950Z,50.40
2019-05-02T00:32:45.955Z,47.00
2019-05-02T00:35:46.185Z,53.30
2019-05-02T00:38:39.943Z,57.90
2019-05-02T00:41:38.522Z,48.43
2019-05-02T00:44:32.692Z,54.37
2019-05-02T00:47:42.395Z,53.87
2019-05-02T00:50:36.320Z,54.17
2019-05-02T00:53:31.877Z,57.50
2019-05-02T00:56:27.432Z,50.57
2019-05-02T00:59:23.153Z,66.43
2019-05-02T01:02:40.657Z,62.38
2019-05-02T01:05:38.465Z,64.53
2019-05-02T01:08:35.624Z,65.80
2019-05-02T01:11:32.161Z,64.87
2019-05-02T01:14:27.198Z,67.17
2019-05-02T01:17:20.389Z,67.00
2019-05-02T01:20:16.139Z,66.67
2019-05-02T01:23:12.446Z,66.27
2019-05-02T01:26:09.288Z,76.23
2019-05-02T01:29:19.584Z,82.57
2019-05-02T01:32:33.194Z,79.70
2019-05-02T01:35:37.727Z,80.30
2019-05-02T01:38:53.545Z,60.17
2019-05-02T01:41:50.085Z,79.17
2019-05-02T01:44:46.775Z,78.03
2019-05-02T01:47:44.399Z,58.00
2019-05-02T01:50:40.274Z,76.13
2019-05-02T01:53:37.224Z,68.52
2019-05-02T01:56:34.750Z,68.27
2019-05-02T01:59:33.897Z,65.43
2019-05-02T02:02:28.174Z,70.35
2019-05-02T02:05:22.810Z,76.33
2019-05-02T02:08:18.243Z,63.58
2019-05-02T02:11:14.810Z,70.42
2019-05-02T02:14:13.078Z,66.57
2019-05-02T02:17:10.003Z,67.17
2019-05-02T02:20:05.148Z,70.60
2019-05-02T02:23:14.164Z,61.37
2019-05-02T02:26:13.923Z,60.12
2019-05-02T02:29:10.072Z,55.98
2019-05-02T02:32:07.481Z,57.20
2019-05-02T02:35:09.508Z,53.93
2019-05-02T02:37:59.884Z,66.00
2019-05-02T02:40:57.582Z,52.50
2019-05-02T02:43:54.704Z,56.10
2019-05-02T02:46:53.273Z,49.70
2019-05-02T02:49:48.868Z,62.38
2019-05-02T02:52:47.101Z,73.20
2019-05-02T02:55:40.798Z,62.67
2019-05-02T02:58:45.711Z,70.40
2019-05-02T03:01:33.895Z,73.43
2019-05-02T03:04:30.432Z,64.13
2019-05-02T03:07:28.770Z,67.27
2019-05-02T03:10:23.376Z,59.93
2019-05-02T03:13:31.524Z,65.13
2019-05-02T03:16:45.934Z,54.60
2019-05-02T03:19:31.567Z,61.90
2019-05-02T03:22:34.824Z,61.53
2019-05-02T03:25:48.981Z,58.20
2019-05-02T03:28:21.587Z,60.80
2019-05-02T03:31:24.712Z,67.87
2019-05-02T03:34:16.708Z,75.67
2019-05-02T03:37:14.020Z,62.53
2019-05-02T03:40:10.326Z,69.87
2019-05-02T03:43:08.812Z,65.23
2019-05-02T03:46:05.623Z,73.10
2019-05-02T03:49:07.382Z,81.97
2019-05-02T03:52:02.821Z,74.90
2019-05-02T03:54:53.982Z,78.97
2019-05-02T03:57:49.732Z,74.70
2019-05-02T04:00:46.314Z,72.23
2019-05-02T04:03:43.713Z,77.37
2019-05-02T04:06:38.577Z,88.00
2019-05-02T04:09:48.663Z,79.75
2019-05-02T04:12:46.358Z,84.13
2019-05-02T04:15:42.127Z,76.67
2019-05-02T04:18:38.674Z,86.43
2019-05-02T04:21:35.538Z,92.37
2019-05-02T04:24:32.233Z,93.63
2019-05-02T04:27:33.886Z,76.43
2019-05-02T04:30:25.283Z,77.77
2019-05-02T04:33:22.152Z,82.05
2019-05-02T04:36:18.115Z,93.37
2019-05-02T04:39:20.549Z,91.13
2019-05-02T04:42:19.448Z,90.63
2019-05-02T04:45:24.389Z,95.60
2019-05-02T04:48:08.435Z,104.70
2019-05-02T04:51:10.391Z,84.27
2019-05-02T04:53:59.576Z,100.82
2019-05-02T04:56:58.962Z,105.53
2019-05-02T05:00:02.551Z,88.60
2019-05-02T05:02:53.147Z,79.90
2019-05-02T05:05:48.192Z,81.90
2019-05-02T05:08:42.666Z,91.17
2019-05-02T05:11:40.249Z,83.00
2019-05-02T05:14:41.205Z,91.40
2019-05-02T05:17:34.244Z,86.37
2019-05-02T05:20:30.988Z,83.50
2019-05-02T05:23:41.769Z,86.37
2019-05-02T05:26:41.001Z,88.23
2019-05-02T05:29:33.606Z,84.03
2019-05-02T05:32:37.616Z,96.57
2019-05-02T05:35:33.025Z,95.87
2019-05-02T05:38:32.613Z,85.00
2019-05-02T05:41:27.829Z,89.23
2019-05-02T05:44:28.655Z,78.00
2019-05-02T05:47:21.549Z,111.80
2019-05-02T05:50:18.030Z,86.20
2019-05-02T05:53:17.063Z,81.07
2019-05-02T05:56:11.264Z,93.37
2019-05-02T05:59:07.814Z,84.33
2019-05-02T06:02:05.516Z,76.80
2019-05-02T06:05:02.531Z,73.65
2019-05-02T06:07:59.847Z,78.77
2019-05-02T06:10:56.490Z,75.10
2019-05-02T06:14:01.398Z,69.20
2019-05-02T06:16:58.074Z,76.97
2019-05-02T06:19:55.386Z,66.90
2019-05-02T06:22:54.904Z,65.73
2019-05-02T06:25:48.044Z,49.20
2019-05-02T06:28:43.624Z,37.70
2019-05-02T06:31:43.041Z,49.42
2019-05-02T06:34:55.173Z,36.97
2019-05-02T06:37:50.051Z,29.00
2019-05-02T06:40:44.610Z,22.87
2019-05-02T06:43:46.726Z,23.50
2019-05-02T06:46:40.012Z,20.93
2019-05-02T06:49:36.714Z,18.80
2019-05-02T06:52:34.660Z,19.27
2019-05-02T06:55:36.152Z,16.57
2019-05-02T06:58:27.234Z,16.55
2019-05-02T07:01:23.743Z,15.67
2019-05-02T07:04:22.789Z,15.10
2019-05-02T07:07:16.358Z,15.07
2019-05-02T07:10:13.344Z,14.00
2019-05-02T07:13:17.290Z,13.22
2019-05-02T07:16:38.404Z,13.30
2019-05-02T07:19:51.324Z,12.50
2019-05-02T07:22:51.156Z,13.57
2019-05-02T07:25:54.179Z,11.93
2019-05-02T07:28:51.032Z,12.50
2019-05-02T07:31:53.610Z,14.47
2019-05-02T07:34:49.499Z,13.10
2019-05-02T07:37:48.721Z,12.57
2019-05-02T07:40:42.028Z,11.73
2019-05-02T07:43:39.627Z,13.10
2019-05-02T07:46:50.704Z,11.30
2019-05-02T07:49:34.494Z,11.60
2019-05-02T07:52:33.613Z,12.47
2019-05-02T07:55:30.538Z,12.03
2019-05-02T07:58:24.496Z,11.50
2019-05-02T08:01:21.369Z,12.27
2019-05-02T08:04:19.096Z,12.87
2019-05-02T08:07:16.316Z,12.53
2019-05-02T08:10:16.471Z,12.13
2019-05-02T08:13:17.005Z,12.13
2019-05-02T08:16:07.375Z,11.80
2019-05-02T08:19:05.516Z,12.13
2019-05-02T08:21:59.546Z,11.97
2019-05-02T08:24:56.100Z,12.60
2019-05-02T08:28:10.198Z,12.30
2019-05-02T08:31:18.863Z,12.10
2019-05-02T08:34:15.050Z,12.07
2019-05-02T08:37:09.561Z,12.60
2019-05-02T08:40:10.636Z,11.90
2019-05-02T08:43:03.544Z,12.00
2019-05-02T08:45:58.691Z,11.73
2019-05-02T08:48:55.378Z,12.47
2019-05-02T08:51:52.280Z,13.10
2019-05-02T08:54:48.928Z,12.30
2019-05-02T08:57:45.587Z,13.20
2019-05-02T09:00:41.212Z,11.13
2019-05-02T09:03:54.609Z,12.63
2019-05-02T09:06:34.852Z,11.83
2019-05-02T09:09:31.331Z,12.97
2019-05-02T09:12:27.104Z,12.53
2019-05-02T09:15:24.874Z,11.80
2019-05-02T09:18:35.250Z,12.40
2019-05-02T09:21:26.714Z,17.73
2019-05-02T09:24:23.799Z,12.03
2019-05-02T09:27:16.828Z,12.13
2019-05-02T09:30:17.135Z,14.40
2019-05-02T09:33:09.177Z,13.93
2019-05-02T09:36:05.466Z,13.33
2019-05-02T09:39:02.668Z,12.97
2019-05-02T09:42:06.640Z,12.73
2019-05-02T09:45:03.128Z,13.10
2019-05-02T09:48:06.857Z,13.20
2019-05-02T09:50:57.939Z,12.90
2019-05-02T09:53:57.042Z,13.38
2019-05-02T09:56:48.282Z,16.40
2019-05-02T09:59:50.620Z,14.50
2019-05-02T10:02:41.872Z,14.80
2019-05-02T10:05:38.228Z,13.03
2019-05-02T10:08:43.537Z,13.43
2019-05-02T10:11:35.008Z,13.67
2019-05-02T10:14:33.186Z,12.87
2019-05-02T10:17:28.227Z,14.80
2019-05-02T10:20:31.797Z,13.17
2019-05-02T10:23:21.463Z,12.78
2019-05-02T10:26:24.449Z,12.47
2019-05-02T10:29:20.914Z,29.23
2019-05-02T10:32:16.762Z,12.58
2019-05-02T10:35:14.472Z,11.70
2019-05-02T10:38:17.676Z,11.50
2019-05-02T10:41:06.943Z,11.00
2019-05-02T10:44:03.448Z,11.80
2019-05-02T10:47:14.098Z,11.00
2019-05-02T10:50:12.780Z,12.93
2019-05-02T10:53:14.313Z,11.70
2019-05-02T10:56:07.132Z,11.63
2019-05-02T10:59:02.989Z,12.40
2019-05-02T11:02:13.492Z,15.53
2019-05-02T11:05:17.063Z,11.93
2019-05-02T11:08:11.899Z,13.60
2019-05-02T11:11:06.822Z,12.33
2019-05-02T11:14:23.929Z,12.80
2019-05-02T11:17:36.280Z,12.90
2019-05-02T11:20:31.776Z,12.33
2019-05-02T11:23:27.300Z,12.27
2019-05-02T11:26:25.269Z,12.80
2019-05-02T11:29:20.056Z,13.80
2019-05-02T11:32:15.689Z,13.33
2019-05-02T11:35:12.264Z,13.43
2019-05-02T11:38:25.289Z,13.20
2019-05-02T11:41:13.808Z,12.70
2019-05-02T11:44:12.103Z,13.07
2019-05-02T11:47:08.256Z,11.90
2019-05-02T11:50:06.544Z,13.00
2019-05-02T11:53:09.225Z,11.83
2019-05-02T11:56:05.704Z,13.00
2019-05-02T11:58:58.035Z,11.90
2019-05-02T12:01:59.362Z,12.10
2019-05-02T12:04:55.464Z,12.05
2019-05-02T12:07:48.682Z,12.30
2019-05-02T12:10:54.458Z,13.23
2019-05-02T12:13:52.733Z,12.77
2019-05-02T12:16:52.721Z,12.50
2019-05-02T12:19:49.935Z,11.73
2019-05-02T12:22:47.313Z,11.30
2019-05-02T12:25:42.922Z,12.33
2019-05-02T12:28:39.693Z,12.30
2019-05-02T12:31:56.386Z,10.43
2019-05-02T12:34:48.773Z,12.20
2019-05-02T12:37:47.086Z,12.37
2019-05-02T12:40:42.373Z,12.30
2019-05-02T12:43:44.089Z,12.30
2019-05-02T12:46:37.329Z,12.67
2019-05-02T12:49:35.131Z,12.93
2019-05-02T12:52:32.067Z,12.40
2019-05-02T12:55:27.336Z,11.55
2019-05-02T12:58:22.956Z,12.50
2019-05-02T13:01:19.321Z,11.23
2019-05-02T13:04:27.627Z,11.47
2019-05-02T13:07:27.069Z,11.57
2019-05-02T13:10:24.174Z,12.10
2019-05-02T13:13:21.802Z,11.17
2019-05-02T13:16:18.328Z,11.20
2019-05-02T13:19:14.750Z,10.77
2019-05-02T13:22:41.942Z,11.73
2019-05-02T13:25:38.594Z,11.48
2019-05-02T13:28:35.684Z,11.78
2019-05-02T13:31:42.774Z,11.80
2019-05-02T13:34:55.480Z,11.33
2019-05-02T13:37:51.769Z,11.60
2019-05-02T13:40:53.928Z,10.70
2019-05-02T13:43:54.162Z,10.80
2019-05-02T13:46:50.693Z,16.60
2019-05-02T13:49:54.022Z,12.70
2019-05-02T13:52:45.270Z,12.10
2019-05-02T13:55:42.618Z,11.73
2019-05-02T13:58:42.445Z,11.17
2019-05-02T14:01:36.475Z,12.13
2019-05-02T14:04:32.782Z,12.70
2019-05-02T14:07:29.254Z,13.53
2019-05-02T14:10:41.050Z,12.10
2019-05-02T14:13:35.687Z,14.80
2019-05-02T14:16:32.054Z,12.67
2019-05-02T14:19:29.068Z,12.93
2019-05-02T14:22:23.825Z,13.80
2019-05-02T14:25:22.382Z,14.10
2019-05-02T14:28:18.360Z,18.20
2019-05-02T14:31:14.120Z,13.80
2019-05-02T14:34:29.366Z,13.10
2019-05-02T14:37:29.855Z,13.73
2019-05-02T14:40:32.070Z,14.50
2019-05-02T14:43:46.883Z,12.80
2019-05-02T14:46:39.717Z,13.77
2019-05-02T14:49:36.151Z,12.63
2019-05-02T14:52:32.694Z,14.77
2019-05-02T14:55:29.248Z,16.80
2019-05-02T14:58:43.927Z,15.43
2019-05-02T15:01:42.076Z,13.40
2019-05-02T15:04:44.407Z,14.10
2019-05-02T15:07:33.786Z,16.17
2019-05-02T15:10:32.721Z,14.23
2019-05-02T15:13:26.886Z,16.87
2019-05-02T15:16:39.533Z,14.30
2019-05-02T15:19:25.053Z,13.80
2019-05-02T15:22:27.504Z,14.33
2019-05-02T15:25:26.407Z,15.07
2019-05-02T15:28:43.528Z,14.33
2019-05-02T15:31:42.002Z,13.83
2019-05-02T15:34:58.391Z,14.10
2019-05-02T15:37:56.685Z,13.70
2019-05-02T15:40:53.419Z,14.13
2019-05-02T15:43:49.898Z,13.23
2019-05-02T15:46:45.509Z,14.30
2019-05-02T15:49:44.896Z,14.40
2019-05-02T15:52:41.956Z,13.93
2019-05-02T15:55:39.366Z,12.00
2019-05-02T15:58:42.535Z,12.18
2019-05-02T16:01:52.467Z,12.60
2019-05-02T16:04:52.259Z,11.87
2019-05-02T16:07:47.003Z,12.60
2019-05-02T16:10:44.531Z,14.43
2019-05-02T16:13:42.367Z,14.30
2019-05-02T16:16:41.777Z,13.80
2019-05-02T16:19:33.560Z,14.90
2019-05-02T16:22:32.055Z,13.30
2019-05-02T16:25:33.999Z,12.83
2019-05-02T16:28:28.514Z,13.00
2019-05-02T16:31:26.427Z,12.90
2019-05-02T16:34:22.621Z,12.37
2019-05-02T16:37:22.662Z,12.90
2019-05-02T16:40:22.141Z,12.23
2019-05-02T16:43:15.728Z,14.00
2019-05-02T16:46:14.096Z,12.37
2019-05-02T16:49:08.812Z,12.60
2019-05-02T16:52:07.325Z,12.82
2019-05-02T16:55:00.384Z,12.00
2019-05-02T16:58:02.764Z,12.73
2019-05-02T17:00:54.915Z,11.67
2019-05-02T17:03:53.091Z,11.27
2019-05-02T17:06:52.323Z,11.78
2019-05-02T17:10:02.985Z,11.73
2019-05-02T17:13:00.880Z,11.30
2019-05-02T17:15:54.519Z,11.60
2019-05-02T17:18:57.985Z,11.23
2019-05-02T17:21:56.611Z,11.77
2019-05-02T17:24:52.603Z,12.17
2019-05-02T17:27:48.448Z,12.57
2019-05-02T17:30:56.538Z,11.97
2019-05-02T17:33:55.021Z,11.60
2019-05-02T17:36:48.939Z,11.60
2019-05-02T17:39:46.109Z,12.70
2019-05-02T17:42:47.999Z,10.72
2019-05-02T17:45:47.922Z,11.08
2019-05-02T17:48:47.845Z,12.20
2019-05-02T17:52:05.631Z,11.83
2019-05-02T17:55:01.730Z,12.77
2019-05-02T17:57:56.166Z,11.70
2019-05-02T18:00:57.114Z,12.17
2019-05-02T18:03:52.087Z,12.10
2019-05-02T18:06:53.664Z,11.78
2019-05-02T18:09:47.591Z,12.60
2019-05-02T18:13:00.061Z,11.93
2019-05-02T18:15:56.530Z,11.57
2019-05-02T18:18:52.221Z,11.20
2019-05-02T18:21:49.872Z,11.33
2019-05-02T18:24:46.446Z,11.70
2019-05-02T18:27:42.220Z,11.43
2019-05-02T18:30:41.754Z,11.10
2019-05-02T18:33:40.533Z,11.50
2019-05-02T18:36:32.263Z,11.50
2019-05-02T18:39:41.639Z,11.30
2019-05-02T18:42:31.945Z,11.50
2019-05-02T18:45:31.735Z,12.50
2019-05-02T18:48:26.426Z,12.40
2019-05-02T18:51:22.153Z,14.47
2019-05-02T18:54:18.450Z,13.40
2019-05-02T18:57:17.183Z,13.47
2019-05-02T19:00:12.169Z,14.43
2019-05-02T19:03:13.218Z,13.30
2019-05-02T19:06:04.364Z,13.30
2019-05-02T19:09:02.144Z,13.83
2019-05-02T19:12:05.843Z,13.70
2019-05-02T19:14:57.486Z,12.60
2019-05-02T19:17:52.886Z,12.67
2019-05-02T19:21:17.919Z,11.80
2019-05-02T19:24:13.227Z,11.13
2019-05-02T19:27:09.858Z,10.43
2019-05-02T19:30:05.856Z,10.37
2019-05-02T19:33:07.835Z,10.60
2019-05-02T19:35:59.703Z,9.80
2019-05-02T19:39:03.279Z,11.15
2019-05-02T19:41:53.220Z,10.37
2019-05-02T19:44:50.136Z,10.00
2019-05-02T19:47:48.988Z,10.33
2019-05-02T19:50:56.385Z,11.20
2019-05-02T19:53:59.652Z,10.63
2019-05-02T19:56:58.198Z,9.93
2019-05-02T19:59:57.122Z,9.67
2019-05-02T20:02:59.264Z,9.70
2019-05-02T20:05:56.609Z,9.40
2019-05-02T20:08:58.849Z,9.80
2019-05-02T20:11:48.107Z,9.63
2019-05-02T20:14:47.459Z,10.33
2019-05-02T20:17:41.663Z,9.80
2019-05-02T20:21:12.142Z,10.40
2019-05-02T20:24:09.047Z,10.50
2019-05-02T20:27:02.794Z,10.37
2019-05-02T20:29:57.361Z,10.57
2019-05-02T20:32:54.209Z,11.03
2019-05-02T20:35:52.661Z,10.67
2019-05-02T20:38:46.243Z,11.07
2019-05-02T20:41:43.132Z,10.77
2019-05-02T20:44:41.728Z,11.60
2019-05-02T20:47:36.372Z,11.57
2019-05-02T20:50:32.021Z,12.30
2019-05-02T20:53:34.273Z,11.93
2019-05-02T20:56:32.842Z,11.60
2019-05-02T20:59:28.110Z,12.50
2019-05-02T21:02:24.899Z,13.20
2019-05-02T21:05:21.813Z,14.30
2019-05-02T21:08:34.921Z,14.23
2019-05-02T21:11:32.383Z,14.60
2019-05-02T21:14:29.276Z,13.07
2019-05-02T21:17:26.382Z,13.37
2019-05-02T21:20:22.013Z,14.60
2019-05-02T21:23:18.409Z,14.43
2019-05-02T21:26:22.014Z,13.80
2019-05-02T21:29:18.246Z,15.10
2019-05-02T21:32:13.854Z,15.07
2019-05-02T21:35:12.014Z,15.50
2019-05-02T21:38:08.161Z,13.73
2019-05-02T21:41:04.064Z,15.17
2019-05-02T21:44:02.482Z,15.13
2019-05-02T21:46:58.695Z,15.03
2019-05-02T21:50:01.818Z,15.40
2019-05-02T21:53:09.467Z,14.87
2019-05-02T21:56:21.791Z,15.33
2019-05-02T21:59:23.311Z,14.73
2019-05-02T22:02:22.559Z,15.73
2019-05-02T22:05:18.609Z,15.10
2019-05-02T22:08:14.104Z,14.70
2019-05-02T22:11:12.206Z,14.00
2019-05-02T22:14:08.536Z,16.35
2019-05-02T22:17:05.386Z,14.10
2019-05-02T22:20:06.151Z,14.90
2019-05-02T22:23:12.402Z,15.07
2019-05-02T22:26:16.454Z,13.65
2019-05-02T22:29:13.344Z,14.23
2019-05-02T22:32:12.128Z,13.80
2019-05-02T22:35:07.800Z,13.90
2019-05-02T22:38:04.412Z,13.90
2019-05-02T22:41:01.714Z,14.50
2019-05-02T22:43:55.876Z,13.93
2019-05-02T22:46:53.677Z,14.60
2019-05-02T22:49:51.828Z,14.93
2019-05-02T22:52:52.197Z,12.83
2019-05-02T22:55:52.531Z,12.70
2019-05-02T22:58:55.234Z,12.90
2019-05-02T23:01:52.786Z,12.40
2019-05-02T23:04:47.878Z,12.33
2019-05-02T23:07:48.502Z,11.05
2019-05-02T23:10:52.410Z,11.30
2019-05-02T23:13:55.536Z,11.27
2019-05-02T23:16:53.398Z,10.37
2019-05-02T23:19:52.730Z,10.87
2019-05-02T23:22:48.031Z,10.87
2019-05-02T23:26:09.012Z,11.23
2019-05-02T23:29:04.695Z,10.65
2019-05-02T23:32:02.396Z,11.10
2019-05-02T23:34:56.914Z,10.90
2019-05-02T23:37:53.799Z,11.43
2019-05-02T23:40:50.269Z,11.03
2019-05-02T23:43:45.874Z,11.20
2019-05-02T23:46:42.527Z,11.70
2019-05-02T23:49:37.483Z,11.23
2019-05-02T23:52:34.158Z,9.90
2019-05-02T23:55:32.199Z,10.00
2019-05-02T23:58:28.343Z,10.00
